Time;durP1;ratioP1;P1;durP2;ratioP2;P2;SDS_P1;SDS_P2;PMS_P1;PMS_P2;Temp;Humidity;BMP_temperature;BMP_pressure;BME280_temperature;BME280_humidity;BME280_pressure;Samples;Min_cycle;Max_cycle;Signal;HPM_P1;HPM_P2
2022/06/28 00:02:00;;;;;;;12.57;11.48;;;;;;;13.15;87.72;101993.78;4999836;28;20418;-66
2022/06/28 00:04:26;;;;;;;12.07;10.90;;;;;;;13.06;87.89;101992.66;5001041;28;20022;-66
2022/06/28 00:06:52;;;;;;;12.13;11.02;;;;;;;13.07;87.71;101996.09;4992883;28;20077;-66
2022/06/28 00:09:18;;;;;;;12.10;11.00;;;;;;;13.01;87.83;101994.78;5003189;28;20056;-66
2022/06/28 00:11:43;;;;;;;12.30;11.20;;;;;;;13.08;88.17;101990.81;4992964;28;20034;-66
2022/06/28 00:16:56;;;;;;;13.27;11.65;;;;;;;13.13;89.01;101991.28;5003730;28;20141;-67
2022/06/28 00:19:21;;;;;;;12.75;11.45;;;;;;;13.17;88.41;101992.72;4995798;28;20451;-66
2022/06/28 00:21:48;;;;;;;12.60;11.50;;;;;;;13.23;88.73;101987.06;4995499;28;20054;-66
2022/06/28 00:24:14;;;;;;;13.88;12.48;;;;;;;13.25;88.16;101990.41;4992850;28;20052;-66
2022/06/28 00:26:39;;;;;;;12.98;11.68;;;;;;;13.25;88.54;101995.63;4999072;28;20034;-66
2022/06/28 00:29:05;;;;;;;13.13;11.93;;;;;;;13.28;88.43;101994.56;5001485;28;20026;-66
2022/06/28 00:31:30;;;;;;;13.07;11.77;;;;;;;13.32;87.94;101995.16;5006628;28;20501;-66
2022/06/28 00:33:56;;;;;;;12.20;11.10;;;;;;;13.31;87.91;101993.50;4993112;28;20050;-66
2022/06/28 00:36:21;;;;;;;12.73;11.63;;;;;;;13.21;88.10;101983.75;5006354;28;20057;-66
2022/06/28 00:38:46;;;;;;;13.60;12.23;;;;;;;13.25;88.10;101995.63;4995246;28;20410;-66
2022/06/28 00:41:12;;;;;;;13.18;11.98;;;;;;;13.24;88.06;101993.09;4994045;28;20117;-66
2022/06/28 00:43:37;;;;;;;13.00;11.90;;;;;;;13.17;87.93;101992.72;5006854;28;20053;-67
2022/06/28 00:46:03;;;;;;;12.35;11.07;;;;;;;13.22;88.01;101990.63;5001369;28;20032;-67
2022/06/28 00:48:28;;;;;;;12.20;11.10;;;;;;;13.23;87.98;101994.88;5000514;28;20061;-66
2022/06/28 00:50:54;;;;;;;12.13;11.02;;;;;;;13.22;87.85;101989.81;4992241;28;20512;-66
2022/06/28 00:53:20;;;;;;;12.57;11.48;;;;;;;13.12;87.88;101984.41;4997100;28;20450;-66
2022/06/28 00:55:47;;;;;;;13.45;12.18;;;;;;;13.23;88.50;101999.28;4995129;28;20026;-66
2022/06/28 00:58:14;;;;;;;13.27;11.90;;;;;;;13.15;88.02;101999.81;5002829;28;20034;-66
2022/06/28 01:00:44;;;;;;;12.40;11.30;;;;;;;13.01;88.53;101981.75;5006708;28;20395;-67
2022/06/28 01:03:13;;;;;;;13.23;12.10;;;;;;;13.11;88.81;101998.38;5002320;28;20101;-66
2022/06/28 01:05:40;;;;;;;13.23;12.02;;;;;;;13.16;88.71;101996.25;4988817;28;20486;-66
2022/06/28 01:08:06;;;;;;;13.23;12.13;;;;;;;12.99;88.90;101981.03;5001719;28;20152;-66
2022/06/28 01:10:31;;;;;;;13.32;12.13;;;;;;;13.11;88.49;102003.59;5003198;28;20073;-66
2022/06/28 01:12:57;;;;;;;13.27;12.18;;;;;;;13.12;88.70;102000.03;4998014;28;20452;-66
2022/06/28 01:15:22;;;;;;;12.85;11.75;;;;;;;13.10;88.85;102007.13;5000349;28;20033;-66
2022/06/28 01:17:47;;;;;;;13.15;11.82;;;;;;;13.03;89.02;102006.75;4999552;28;20076;-66
2022/06/28 01:20:13;;;;;;;13.18;11.98;;;;;;;13.03;88.60;101998.94;4987524;28;20026;-66
2022/06/28 01:22:40;;;;;;;13.13;11.77;;;;;;;12.97;89.20;102009.81;4993595;28;20827;-66
2022/06/28 01:25:08;;;;;;;13.55;12.35;;;;;;;12.98;88.84;102014.06;4994627;28;20501;-66
2022/06/28 01:27:33;;;;;;;13.35;12.05;;;;;;;13.02;88.66;102014.69;4999795;28;20148;-67
2022/06/28 01:29:59;;;;;;;13.15;11.85;;;;;;;13.00;88.74;102016.56;4988534;28;20177;-67
2022/06/28 01:32:26;;;;;;;14.13;12.50;;;;;;;13.00;89.04;102012.19;5002062;28;20029;-66
2022/06/28 01:34:52;;;;;;;13.82;12.52;;;;;;;12.97;89.17;102012.41;5001049;28;20120;-66
2022/06/28 01:37:18;;;;;;;13.43;12.23;;;;;;;12.93;89.37;102015.34;5004410;28;20537;-66
2022/06/28 01:39:43;;;;;;;13.35;12.15;;;;;;;12.95;88.94;102014.28;5000161;28;20026;-66
2022/06/28 01:42:09;;;;;;;13.73;12.30;;;;;;;12.91;89.60;102017.25;4992438;28;20030;-67
2022/06/28 01:44:35;;;;;;;13.40;12.15;;;;;;;12.85;89.48;102017.69;4994365;28;20019;-66
2022/06/28 01:47:02;;;;;;;13.15;11.85;;;;;;;12.90;89.29;102016.41;4992659;28;20025;-66
2022/06/28 01:49:27;;;;;;;13.00;11.80;;;;;;;12.80;89.93;102011.97;5003263;28;20859;-66
2022/06/28 01:51:52;;;;;;;12.77;11.57;;;;;;;12.86;89.67;102029.75;5004743;28;20025;-66
2022/06/28 01:54:18;;;;;;;12.30;11.30;;;;;;;12.88;89.29;102026.09;4997536;28;20030;-66
2022/06/28 01:56:43;;;;;;;13.40;12.20;;;;;;;12.73;89.33;102012.41;4996852;28;20021;-66
2022/06/28 01:59:09;;;;;;;13.18;11.90;;;;;;;12.83;89.69;102020.38;4997538;28;20034;-66
2022/06/28 02:01:36;;;;;;;12.45;11.10;;;;;;;12.83;89.88;102014.34;5003092;28;20120;-66
2022/06/28 02:04:17;;;;;;;12.68;11.48;;;;;;;12.87;90.10;102021.81;4996911;28;20029;-66
2022/06/28 02:06:42;;;;;;;12.38;11.07;;;;;;;12.87;89.39;102021.81;5004547;28;20018;-66
2022/06/28 02:09:08;;;;;;;12.40;11.23;;;;;;;12.89;89.52;102019.09;5001375;28;20367;-66
2022/06/28 02:11:33;;;;;;;12.27;11.15;;;;;;;12.91;89.12;102027.66;5004980;28;20056;-66
2022/06/28 02:13:58;;;;;;;12.65;11.45;;;;;;;12.92;89.28;102034.53;5003804;28;20152;-66
2022/06/28 02:16:24;;;;;;;12.15;10.95;;;;;;;12.91;89.31;102038.06;5002708;28;20025;-66
2022/06/28 02:18:49;;;;;;;12.07;10.95;;;;;;;12.90;89.26;102028.56;5001514;28;20030;-66
2022/06/28 02:21:14;;;;;;;12.75;11.52;;;;;;;12.92;88.83;102029.31;5004926;28;20053;-66
2022/06/28 02:23:40;;;;;;;11.98;10.77;;;;;;;12.89;88.90;102034.72;5004920;28;20529;-66
2022/06/28 02:26:05;;;;;;;12.20;11.10;;;;;;;12.89;89.50;102034.72;4989022;28;20665;-66
2022/06/28 02:28:31;;;;;;;13.05;10.85;;;;;;;12.82;89.10;102023.94;5000456;28;20480;-66
2022/06/28 02:30:56;;;;;;;12.55;11.18;;;;;;;12.88;89.08;102039.09;5005137;28;20022;-68
2022/06/28 02:33:22;;;;;;;11.63;10.48;;;;;;;12.91;89.17;102043.28;4999816;28;20026;-66
2022/06/28 02:41:15;;;;;;;11.23;9.57;;;;;;;12.79;89.06;102039.78;4998271;28;20077;-66
2022/06/28 02:43:40;;;;;;;11.80;10.30;;;;;;;12.73;88.77;102035.84;5005091;28;20497;-66
2022/06/28 02:46:06;;;;;;;11.15;9.88;;;;;;;12.83;89.07;102040.38;4993892;28;20026;-66
2022/06/28 02:48:31;;;;;;;11.63;9.93;;;;;;;12.87;88.98;102054.84;5001847;28;20033;-66
2022/06/28 02:50:56;;;;;;;13.27;9.93;;;;;;;12.81;89.01;102057.91;4992995;28;20109;-66
2022/06/28 02:53:22;;;;;;;11.43;10.20;;;;;;;12.83;89.11;102056.81;4999696;28;20070;-66
2022/06/28 02:55:47;;;;;;;11.65;10.45;;;;;;;12.83;89.22;102066.41;5003937;28;20058;-66
2022/06/28 02:58:13;;;;;;;11.35;10.18;;;;;;;12.83;88.96;102066.41;5005333;28;20531;-66
2022/06/28 03:00:38;;;;;;;11.73;10.23;;;;;;;12.83;89.18;102076.81;4990330;28;20510;-66
2022/06/28 03:03:03;;;;;;;11.75;10.40;;;;;;;12.81;88.77;102083.94;5008450;28;20022;-66
2022/06/28 03:05:29;;;;;;;11.52;10.32;;;;;;;12.77;88.80;102078.94;5004155;28;20041;-66
2022/06/28 03:07:54;;;;;;;11.40;10.10;;;;;;;12.78;88.74;102079.75;4998472;28;20386;-66
2022/06/28 03:10:19;;;;;;;11.18;10.02;;;;;;;12.71;89.23;102081.97;4998528;28;20026;-67
2022/06/28 03:12:45;;;;;;;10.48;9.35;;;;;;;12.73;89.00;102080.09;5008610;28;20144;-66
2022/06/28 03:15:11;;;;;;;11.60;9.57;;;;;;;12.69;89.00;102081.25;4996546;28;20030;-66
2022/06/28 03:17:37;;;;;;;10.73;9.27;;;;;;;12.70;88.88;102088.13;5002875;28;20034;-66
2022/06/28 03:20:02;;;;;;;12.98;9.32;;;;;;;12.70;88.85;102082.91;5000187;28;20033;-67
2022/06/28 03:22:28;;;;;;;10.57;9.05;;;;;;;12.68;88.22;102084.81;5003935;28;20737;-66
2022/06/28 03:24:53;;;;;;;11.75;8.82;;;;;;;12.65;88.64;102091.97;5008445;28;20526;-66
2022/06/28 03:27:19;;;;;;;9.98;8.77;;;;;;;12.68;88.82;102097.81;4998090;28;20034;-67
2022/06/28 03:29:44;;;;;;;11.95;8.75;;;;;;;12.65;88.25;102090.22;5006486;28;20485;-66
2022/06/28 03:32:09;;;;;;;11.25;8.13;;;;;;;12.62;88.38;102100.84;5007954;28;20397;-67
2022/06/28 03:34:35;;;;;;;11.52;8.57;;;;;;;12.55;88.44;102091.78;5003723;28;20030;-67
2022/06/28 03:37:00;;;;;;;10.38;8.38;;;;;;;12.57;87.70;102092.53;5004838;28;20064;-66
2022/06/28 03:39:26;;;;;;;10.45;8.60;;;;;;;12.59;88.05;102095.84;5006272;28;20165;-66
2022/06/28 03:41:51;;;;;;;11.38;8.50;;;;;;;12.48;88.28;102101.78;4989673;28;20538;-66
2022/06/28 03:44:16;;;;;;;10.75;8.45;;;;;;;12.57;87.84;102107.31;5001745;28;20401;-67
2022/06/28 03:46:42;;;;;;;9.38;8.48;;;;;;;12.52;87.90;102105.03;4990000;28;20034;-66
2022/06/28 03:49:07;;;;;;;10.38;8.70;;;;;;;12.52;87.95;102099.81;4993984;28;20027;-66
2022/06/28 03:51:33;;;;;;;11.63;8.80;;;;;;;12.44;88.59;102096.91;4989164;28;20026;-67
2022/06/28 03:53:58;;;;;;;11.85;9.00;;;;;;;12.52;88.48;102104.19;4987302;28;20463;-66
2022/06/28 03:56:24;;;;;;;10.55;9.27;;;;;;;12.40;88.27;102100.66;4992452;28;20053;-66
2022/06/28 03:58:49;;;;;;;11.15;9.13;;;;;;;12.39;88.40;102120.66;5001890;28;20034;-66
2022/06/28 04:01:15;;;;;;;10.38;8.93;;;;;;;12.35;88.02;102113.16;5005691;28;20418;-66
2022/06/28 04:03:40;;;;;;;12.02;9.02;;;;;;;12.36;88.27;102117.41;4989432;28;20041;-66
2022/06/28 04:06:06;;;;;;;9.95;8.95;;;;;;;12.33;88.42;102115.00;4988601;28;20318;-66
2022/06/28 04:08:31;;;;;;;10.27;9.27;;;;;;;12.22;88.50;102119.19;5002000;28;20034;-66
2022/06/28 04:11:15;;;;;;;10.80;8.80;;;;;;;12.34;88.27;102106.31;4989461;28;20023;-66
2022/06/28 04:13:44;;;;;;;11.05;8.00;;;;;;;12.26;88.50;102118.97;4990221;28;20042;-66
2022/06/28 04:16:09;;;;;;;11.73;8.80;;;;;;;12.32;87.83;102102.94;5000794;28;20531;-67
2022/06/28 04:18:35;;;;;;;11.52;9.10;;;;;;;12.38;87.56;102116.38;5004691;28;20068;-67
2022/06/28 04:21:00;;;;;;;10.80;8.20;;;;;;;12.40;87.88;102121.47;5006120;28;20079;-67
2022/06/28 04:23:26;;;;;;;13.20;8.07;;;;;;;12.40;87.67;102126.69;5003332;28;20052;-67
2022/06/28 04:25:51;;;;;;;11.27;8.48;;;;;;;12.40;87.47;102111.06;5006577;28;20030;-67
2022/06/28 04:28:17;;;;;;;10.27;8.68;;;;;;;12.29;87.35;102108.38;5003142;28;20072;-67
2022/06/28 04:30:42;;;;;;;13.30;9.15;;;;;;;12.33;87.67;102125.41;5006605;28;20485;-67
2022/06/28 04:33:08;;;;;;;10.82;8.60;;;;;;;12.39;87.35;102136.28;5000806;28;20068;-67
2022/06/28 04:35:33;;;;;;;11.18;8.57;;;;;;;12.38;87.79;102123.34;4990068;28;20037;-66
2022/06/28 04:37:59;;;;;;;12.38;9.57;;;;;;;12.44;87.66;102125.53;4991101;28;20026;-66
2022/06/28 04:40:24;;;;;;;10.77;9.10;;;;;;;12.45;87.28;102125.44;4997262;28;20458;-66
2022/06/28 04:42:50;;;;;;;10.55;8.90;;;;;;;12.42;88.14;102125.63;4998574;28;20042;-66
2022/06/28 04:45:15;;;;;;;11.27;9.32;;;;;;;12.43;88.16;102119.47;5006978;28;20064;-67
2022/06/28 04:47:42;;;;;;;12.65;9.32;;;;;;;12.45;88.73;102127.22;5006201;28;20037;-66
2022/06/28 04:50:08;;;;;;;14.90;10.10;;;;;;;12.41;88.01;102131.78;4994280;28;20077;-67
2022/06/28 04:52:34;;;;;;;12.40;9.50;;;;;;;12.51;88.20;102118.97;4996377;28;20026;-64
2022/06/28 04:54:59;;;;;;;13.73;9.45;;;;;;;12.44;88.07;102125.53;4998031;28;20053;-66
2022/06/28 04:57:25;;;;;;;14.23;9.95;;;;;;;12.49;87.99;102131.25;5006842;28;20037;-66
2022/06/28 04:59:50;;;;;;;11.98;9.43;;;;;;;12.46;88.25;102121.06;4992045;28;20401;-66
2022/06/28 05:02:15;;;;;;;13.52;9.52;;;;;;;12.53;88.21;102139.69;5000626;28;20042;-66
2022/06/28 05:04:41;;;;;;;12.15;9.68;;;;;;;12.48;88.22;102129.59;5003000;28;20374;-67
2022/06/28 05:07:06;;;;;;;12.63;9.60;;;;;;;12.58;87.92;102135.81;4993119;28;20466;-67
2022/06/28 05:09:31;;;;;;;11.30;9.50;;;;;;;12.59;87.92;102127.06;4997660;28;20072;-67
2022/06/28 05:11:57;;;;;;;12.00;9.30;;;;;;;12.47;87.71;102122.72;4992588;28;20470;-68
2022/06/28 05:14:22;;;;;;;12.93;9.82;;;;;;;12.54;88.01;102136.97;5006612;28;20320;-66
2022/06/28 05:16:47;;;;;;;14.45;8.98;;;;;;;12.53;88.07;102111.88;4990977;28;20076;-66
2022/06/28 05:19:13;;;;;;;12.52;9.10;;;;;;;12.56;87.58;102116.91;5020974;28;20065;-70
2022/06/28 05:21:38;;;;;;;15.13;9.27;;;;;;;12.62;88.00;102126.88;4993690;28;20050;-67
2022/06/28 05:24:04;;;;;;;13.07;9.48;;;;;;;12.59;87.83;102115.84;4991837;28;20026;-66
2022/06/28 05:26:30;;;;;;;13.52;9.45;;;;;;;12.63;88.19;102127.72;4998454;28;20042;-68
2022/06/28 05:28:55;;;;;;;13.52;9.55;;;;;;;12.77;87.97;102136.19;4996488;28;20355;-67
2022/06/28 05:31:21;;;;;;;14.05;9.15;;;;;;;12.74;87.86;102130.41;4992109;28;20068;-67
2022/06/28 05:33:47;;;;;;;13.50;9.10;;;;;;;12.80;87.99;102119.56;4989202;28;20088;-66
2022/06/28 05:36:12;;;;;;;12.75;9.68;;;;;;;12.88;87.84;102117.22;4994414;28;20029;-67
2022/06/28 05:38:37;;;;;;;13.43;9.70;;;;;;;12.91;87.55;102121.41;4999467;28;20026;-67
2022/06/28 05:41:03;;;;;;;13.10;9.32;;;;;;;12.98;87.33;102122.63;4987748;28;20056;-67
2022/06/28 05:43:28;;;;;;;13.23;8.95;;;;;;;12.97;86.56;102110.53;4987750;28;20430;-67
2022/06/28 05:45:53;;;;;;;15.68;8.88;;;;;;;13.08;86.58;102118.44;4999589;28;20124;-67
2022/06/28 05:48:19;;;;;;;12.50;8.85;;;;;;;13.15;86.66;102111.84;4988971;28;20030;-67
2022/06/28 05:50:44;;;;;;;15.98;9.15;;;;;;;13.15;86.41;102113.59;4998384;28;20522;-67
2022/06/28 05:53:10;;;;;;;12.63;9.20;;;;;;;13.21;86.50;102114.03;5002741;28;20029;-67
2022/06/28 05:55:36;;;;;;;14.77;8.93;;;;;;;13.26;86.72;102118.91;4994179;28;20030;-68
2022/06/28 05:58:01;;;;;;;13.75;9.10;;;;;;;13.33;86.21;102114.06;4990638;28;20030;-68
2022/06/28 06:00:26;;;;;;;13.52;9.40;;;;;;;13.37;86.55;102108.53;5004427;28;20036;-66
2022/06/28 06:02:52;;;;;;;13.25;8.73;;;;;;;13.39;86.31;102096.22;5005089;28;20060;-67
2022/06/28 06:05:17;;;;;;;13.10;9.35;;;;;;;13.52;85.82;102109.16;5002732;28;20041;-67
2022/06/28 06:07:42;;;;;;;14.80;8.23;;;;;;;13.50;85.27;102111.06;4996239;28;20030;-67
2022/06/28 06:10:08;;;;;;;11.05;8.15;;;;;;;13.56;85.35;102118.44;4999063;28;20030;-67
2022/06/28 06:12:34;;;;;;;13.93;8.50;;;;;;;13.57;85.33;102114.88;4995694;28;20390;-67
2022/06/28 06:14:59;;;;;;;14.07;8.30;;;;;;;13.64;85.64;102113.47;4992286;28;20069;-67
2022/06/28 06:17:25;;;;;;;14.82;8.35;;;;;;;13.70;85.32;102115.63;4990416;28;20026;-67
2022/06/28 06:19:51;;;;;;;13.82;8.00;;;;;;;13.81;85.36;102117.44;5003814;28;20021;-67
2022/06/28 06:22:16;;;;;;;12.88;7.53;;;;;;;13.84;85.38;102108.56;4986153;28;20053;-67
2022/06/28 06:24:41;;;;;;;15.35;8.43;;;;;;;13.98;84.74;102124.00;5002841;28;20025;-68
2022/06/28 06:27:07;;;;;;;13.85;8.35;;;;;;;14.01;85.06;102121.19;5006025;28;20022;-67
2022/06/28 06:29:32;;;;;;;15.23;8.68;;;;;;;14.01;85.23;102114.19;5003481;28;20080;-67
2022/06/28 06:31:58;;;;;;;13.55;8.38;;;;;;;14.16;85.41;102127.81;4995713;28;20026;-67
2022/06/28 06:34:24;;;;;;;15.02;8.45;;;;;;;14.22;84.30;102132.59;5000351;28;20054;-67
2022/06/28 06:36:50;;;;;;;17.70;8.70;;;;;;;14.29;84.34;102127.75;4995552;28;20425;-68
2022/06/28 06:39:16;;;;;;;17.02;8.43;;;;;;;14.34;83.98;102136.88;4991720;28;20493;-67
2022/06/28 06:41:41;;;;;;;18.17;8.40;;;;;;;14.47;83.79;102131.56;4995350;28;20022;-67
2022/06/28 06:44:07;;;;;;;12.43;8.15;;;;;;;14.55;84.33;102133.59;4993826;28;20370;-68
2022/06/28 06:46:32;;;;;;;14.13;7.85;;;;;;;14.62;83.76;102132.16;5000927;28;20862;-66
2022/06/28 06:48:58;;;;;;;16.75;8.50;;;;;;;14.75;83.75;102125.03;4998266;28;20470;-67
2022/06/28 06:51:24;;;;;;;15.98;9.15;;;;;;;14.80;83.99;102135.13;5005968;28;20021;-67
2022/06/28 06:53:50;;;;;;;18.67;8.00;;;;;;;14.85;83.49;102131.22;5000581;28;20033;-67
2022/06/28 06:56:15;;;;;;;15.38;8.05;;;;;;;14.88;82.13;102136.16;5008667;28;20029;-67
2022/06/28 06:58:41;;;;;;;16.15;8.10;;;;;;;14.98;81.89;102146.72;5007506;28;20366;-67
2022/06/28 07:01:06;;;;;;;16.25;8.27;;;;;;;14.91;81.07;102144.72;4999699;28;20034;-67
2022/06/28 07:03:31;;;;;;;14.55;8.20;;;;;;;15.07;81.73;102139.94;5007367;28;20044;-67
2022/06/28 07:05:57;;;;;;;15.93;8.77;;;;;;;15.24;82.75;102139.41;5002037;28;20058;-68
2022/06/28 07:08:22;;;;;;;16.15;8.15;;;;;;;15.20;82.10;102130.19;5006599;28;20038;-67
2022/06/28 07:10:48;;;;;;;13.93;7.70;;;;;;;15.34;81.65;102142.94;5011565;28;20026;-67
2022/06/28 07:13:14;;;;;;;16.58;7.75;;;;;;;15.29;80.77;102150.34;4997856;28;20027;-68
2022/06/28 07:15:39;;;;;;;16.65;8.73;;;;;;;15.38;81.58;102147.00;4993390;28;20030;-66
2022/06/28 07:18:05;;;;;;;16.60;8.93;;;;;;;15.41;81.45;102165.03;5001533;28;20042;-68
2022/06/28 07:20:31;;;;;;;17.67;8.32;;;;;;;15.62;80.91;102156.41;5006120;28;20463;-67
2022/06/28 07:22:56;;;;;;;15.70;8.25;;;;;;;15.76;80.61;102158.72;5009490;28;20053;-68
2022/06/28 07:25:22;;;;;;;18.65;8.43;;;;;;;15.80;81.14;102165.38;5009620;28;20389;-67
2022/06/28 07:27:47;;;;;;;15.35;7.60;;;;;;;15.97;80.02;102165.78;5007655;28;20030;-66
2022/06/28 07:30:13;;;;;;;16.02;7.55;;;;;;;15.99;79.02;102163.84;5009839;28;20065;-68
2022/06/28 07:32:39;;;;;;;15.00;7.32;;;;;;;16.03;78.70;102149.56;4997351;28;20484;-67
2022/06/28 07:35:06;;;;;;;17.05;7.55;;;;;;;16.23;78.17;102163.59;5032410;28;20061;-67
2022/06/28 07:37:31;;;;;;;15.25;7.28;;;;;;;16.27;77.59;102163.19;5006519;28;20116;-67
2022/06/28 07:39:57;;;;;;;14.48;6.78;;;;;;;16.31;76.26;102159.38;4994788;28;20577;-68
2022/06/28 07:42:22;;;;;;;13.35;6.38;;;;;;;16.40;76.23;102158.59;4992636;28;20088;-67
2022/06/28 07:44:48;;;;;;;15.30;6.15;;;;;;;16.44;74.69;102165.22;4991662;28;20048;-68
2022/06/28 07:47:13;;;;;;;16.05;6.00;;;;;;;16.67;75.13;102165.03;5000173;28;20032;-67
2022/06/28 07:52:35;;;;;;;13.70;4.63;;;;;;;16.77;71.03;102160.69;4998680;28;20118;-69
2022/06/28 07:55:01;;;;;;;13.80;5.40;;;;;;;16.67;71.75;102146.69;4989492;28;20043;-67
2022/06/28 07:57:27;;;;;;;10.52;3.97;;;;;;;16.80;70.55;102165.66;4998791;28;20291;-67
2022/06/28 07:59:53;;;;;;;14.95;4.47;;;;;;;16.97;70.74;102157.19;4990586;28;20042;-67
2022/06/28 08:02:18;;;;;;;14.27;4.93;;;;;;;17.09;70.69;102154.41;4996319;28;20026;-67
2022/06/28 08:04:44;;;;;;;12.95;4.97;;;;;;;17.18;69.89;102158.88;5003812;28;20065;-67
2022/06/28 08:07:09;;;;;;;11.77;3.78;;;;;;;17.26;70.01;102151.13;5006425;28;20080;-69
2022/06/28 08:09:35;;;;;;;12.18;4.10;;;;;;;17.28;70.13;102154.47;4997325;28;20030;-66
2022/06/28 08:12:00;;;;;;;12.10;4.90;;;;;;;17.30;66.99;102163.03;5004176;28;20030;-67
2022/06/28 08:14:27;;;;;;;11.23;4.13;;;;;;;17.34;68.90;102153.91;4998686;28;20483;-67
2022/06/28 08:16:52;;;;;;;11.68;4.53;;;;;;;17.29;68.44;102145.63;4989191;28;20421;-67
2022/06/28 08:19:19;;;;;;;10.50;4.07;;;;;;;17.44;69.27;102139.03;5008001;28;20025;-67
2022/06/28 08:21:45;;;;;;;9.70;3.33;;;;;;;17.63;66.79;102138.19;5005631;28;20402;-67
2022/06/28 08:24:11;;;;;;;11.40;3.90;;;;;;;17.51;63.62;102140.13;5001973;28;20025;-67
2022/06/28 08:26:42;;;;;;;9.95;3.78;;;;;;;17.77;67.02;102144.81;4988920;28;20030;-67
2022/06/28 08:29:08;;;;;;;9.75;2.70;;;;;;;17.64;63.14;102131.13;4987653;28;20418;-67
2022/06/28 08:31:33;;;;;;;8.18;2.40;;;;;;;17.84;63.38;102140.69;4995619;28;20053;-67
2022/06/28 08:33:58;;;;;;;7.93;2.47;;;;;;;17.99;64.14;102138.44;4995970;28;20038;-67
2022/06/28 08:36:24;;;;;;;7.97;2.38;;;;;;;18.08;62.65;102142.03;5000883;28;20030;-67
2022/06/28 08:38:49;;;;;;;8.60;2.95;;;;;;;18.01;62.01;102136.50;4993270;28;20462;-67
2022/06/28 08:41:15;;;;;;;8.00;2.78;;;;;;;18.15;63.18;102124.72;4987516;28;20029;-67
2022/06/28 08:43:41;;;;;;;6.70;1.95;;;;;;;18.32;59.32;102129.22;4995545;28;20032;-67
2022/06/28 08:46:08;;;;;;;6.13;2.10;;;;;;;18.30;58.05;102141.69;5000966;28;20484;-67
2022/06/28 08:48:43;;;;;;;7.30;2.00;;;;;;;18.55;60.70;102130.50;4995412;28;20096;-67
2022/06/28 08:51:10;;;;;;;7.65;1.90;;;;;;;18.61;58.53;102125.66;4997073;28;20056;-67
2022/06/28 08:53:38;;;;;;;7.43;2.05;;;;;;;18.73;59.70;102121.88;5000137;28;20033;-67
2022/06/28 08:56:05;;;;;;;9.33;2.90;;;;;;;18.52;58.54;102120.31;4996887;28;20037;-67
2022/06/28 08:58:31;;;;;;;7.65;2.30;;;;;;;18.66;58.74;102118.16;5004532;28;20425;-67
2022/06/28 09:00:57;;;;;;;6.15;1.98;;;;;;;18.87;58.27;102124.03;4996219;28;20493;-68
2022/06/28 09:03:24;;;;;;;5.95;1.80;;;;;;;18.93;58.05;102122.59;4988412;28;20037;-67
2022/06/28 09:05:49;;;;;;;7.78;1.92;;;;;;;18.96;58.47;102122.28;4996264;28;20037;-68
2022/06/28 09:08:15;;;;;;;5.68;1.30;;;;;;;19.09;56.24;102118.31;4990894;28;20038;-68
2022/06/28 09:10:42;;;;;;;3.90;1.30;;;;;;;19.14;53.30;102122.31;4993715;28;20035;-68
2022/06/28 09:13:11;;;;;;;6.10;1.40;;;;;;;19.24;54.70;102130.97;5001142;28;20390;-67
2022/06/28 09:15:56;;;;;;;5.35;1.50;;;;;;;19.40;56.00;102125.84;4997996;28;20056;-67
2022/06/28 09:18:46;;;;;;;8.82;1.70;;;;;;;19.56;54.75;102120.72;5002823;28;20034;-68
2022/06/28 09:21:17;;;;;;;5.00;1.48;;;;;;;19.55;55.20;102119.03;4998235;28;20057;-67
2022/06/28 09:23:46;;;;;;;6.65;1.58;;;;;;;19.48;55.27;102118.00;5003026;28;20053;-68
2022/06/28 09:26:20;;;;;;;4.80;1.40;;;;;;;19.70;54.73;102115.91;5015019;28;20029;-68
2022/06/28 09:28:47;;;;;;;5.38;1.50;;;;;;;19.60;52.44;102106.28;4994822;28;20130;-67
2022/06/28 09:31:27;;;;;;;5.10;1.77;;;;;;;19.71;54.60;102107.03;4999925;28;20572;-68
2022/06/28 09:34:07;;;;;;;4.80;1.60;;;;;;;19.95;54.94;102101.91;4998415;28;20281;-67
2022/06/28 09:36:37;;;;;;;7.97;2.00;;;;;;;19.88;54.12;102103.53;5006325;28;20030;-67
2022/06/28 09:39:18;;;;;;;4.65;1.60;;;;;;;19.84;54.97;102107.44;5005699;28;20536;-67
2022/06/28 09:41:46;;;;;;;4.63;1.65;;;;;;;20.16;54.14;102097.09;5004591;28;20740;-67
2022/06/28 09:44:11;;;;;;;7.97;1.63;;;;;;;20.15;52.33;102092.81;4993386;28;20051;-67
2022/06/28 09:46:36;;;;;;;7.18;1.70;;;;;;;19.95;51.14;102083.47;5000936;28;20397;-68
2022/06/28 09:49:04;;;;;;;6.32;1.70;;;;;;;19.94;51.81;102079.19;4997800;28;20034;-67
2022/06/28 09:51:32;;;;;;;6.55;1.52;;;;;;;20.30;50.96;102097.47;5003090;28;20062;-68
2022/06/28 09:54:03;;;;;;;7.30;1.60;;;;;;;20.47;52.50;102088.69;5004274;28;20369;-67
2022/06/28 09:56:33;;;;;;;6.03;1.73;;;;;;;20.50;51.79;102093.66;5000732;28;20314;-68
2022/06/28 09:58:59;;;;;;;5.07;1.52;;;;;;;20.61;50.59;102082.81;4998225;28;20057;-68
2022/06/28 10:01:25;;;;;;;6.20;1.80;;;;;;;20.70;50.47;102088.94;4993240;28;20105;-67
2022/06/28 10:03:52;;;;;;;3.67;1.58;;;;;;;20.68;50.23;102081.19;5002273;28;20153;-69
2022/06/28 10:06:18;;;;;;;6.43;1.83;;;;;;;20.56;51.23;102077.19;4995649;28;20080;-68
2022/06/28 10:08:45;;;;;;;6.10;1.50;;;;;;;20.62;52.26;102070.47;5004375;28;20022;-69
2022/06/28 10:11:11;;;;;;;5.88;1.70;;;;;;;20.79;50.54;102076.59;5003591;28;20535;-67
2022/06/28 10:17:04;;;;;;;6.13;1.60;;;;;;;20.85;51.69;102070.69;4986648;28;20041;-70
2022/06/28 10:19:32;;;;;;;8.82;1.50;;;;;;;20.91;50.95;102072.66;4985905;28;20094;-68
2022/06/28 10:21:57;;;;;;;5.10;1.80;;;;;;;20.97;49.21;102066.75;4999170;28;20056;-67
2022/06/28 10:24:42;;;;;;;6.53;1.70;;;;;;;21.13;49.88;102073.84;4997167;28;20023;-68
2022/06/28 10:27:13;;;;;;;7.03;1.73;;;;;;;20.98;52.62;102063.09;4998707;28;20285;-70
2022/06/28 10:30:09;;;;;;;6.63;2.10;;;;;;;21.31;51.59;102055.25;4999901;28;20383;-67
2022/06/28 10:32:55;;;;;;;5.93;1.70;;;;;;;21.55;51.74;102055.22;4999265;28;20105;-71
2022/06/28 10:35:33;;;;;;;5.78;1.60;;;;;;;21.49;51.04;102050.59;4989165;28;20022;-68
2022/06/28 10:38:07;;;;;;;6.25;1.80;;;;;;;21.61;49.71;102051.06;5000789;28;20044;-68
2022/06/28 10:40:47;;;;;;;5.40;1.60;;;;;;;21.51;49.21;102040.72;4995449;28;20053;-67
2022/06/28 10:43:25;;;;;;;5.60;1.60;;;;;;;21.53;49.76;102044.00;4998406;28;20517;-68
2022/06/28 10:46:02;;;;;;;4.97;1.50;;;;;;;21.65;50.26;102042.66;5005276;28;20030;-68
2022/06/28 10:48:28;;;;;;;4.90;1.45;;;;;;;21.51;51.79;102035.44;4993250;28;20080;-68
2022/06/28 10:51:03;;;;;;;5.53;1.40;;;;;;;21.53;52.77;102032.63;4992657;28;20026;-69
2022/06/28 10:53:50;;;;;;;6.35;1.50;;;;;;;21.61;50.57;102041.34;4987714;28;20138;-68
2022/06/28 10:56:16;;;;;;;5.45;1.52;;;;;;;21.69;51.53;102035.25;5002150;28;20457;-67
2022/06/28 10:58:54;;;;;;;5.78;1.75;;;;;;;21.74;50.47;102035.56;4993107;28;20090;-68
2022/06/28 11:01:40;;;;;;;4.68;1.40;;;;;;;21.74;50.76;102036.38;5004020;28;20044;-69
2022/06/28 11:04:12;;;;;;;4.90;1.48;;;;;;;21.95;51.81;102033.16;4994531;28;20023;-67
2022/06/28 11:06:41;;;;;;;6.13;1.40;;;;;;;21.94;51.50;102035.97;4999463;28;20107;-66
2022/06/28 11:09:13;;;;;;;6.20;1.50;;;;;;;22.02;50.23;102033.28;5005127;28;20022;-66
2022/06/28 11:12:17;;;;;;;6.78;1.50;;;;;;;22.13;50.31;102021.56;4992875;28;20393;-67
2022/06/28 11:14:54;;;;;;;4.72;1.60;;;;;;;22.28;49.33;102017.22;5002943;28;20033;-69
2022/06/28 11:17:31;;;;;;;4.40;1.40;;;;;;;22.52;48.51;102022.34;4988464;28;20033;-68
2022/06/28 11:20:02;;;;;;;5.68;1.60;;;;;;;22.56;47.51;102009.63;4992410;28;20030;-67
2022/06/28 11:22:40;;;;;;;4.40;1.27;;;;;;;22.62;49.82;102024.78;4990456;28;20092;-67
2022/06/28 11:25:08;;;;;;;6.50;1.63;;;;;;;22.54;46.61;102022.19;4997887;28;20098;-70
2022/06/28 11:27:33;;;;;;;5.13;1.35;;;;;;;22.61;48.67;102007.28;4998787;28;20120;-67
2022/06/28 11:30:01;;;;;;;4.28;1.30;;;;;;;22.63;49.13;102007.91;5008592;28;20108;-67
2022/06/28 11:32:31;;;;;;;3.38;1.10;;;;;;;22.92;47.93;101995.81;5007118;28;20565;-68